Time,TemperatureF,DewpointF,PressureIn,WindDirection,WindDirectionDegrees,WindSpeedMPH,WindSpeedGustMPH,Humidity,HourlyPrecipIn,Conditions,Clouds,dailyrainin,SoftwareType,DateUTC
2015-08-29 00:13:00,71.0,40.0,-100.00,SE,128,9.0,11.0,33,-99.99,,,-99.99,,2015-08-29 06:13:00,
2015-08-29 00:23:00,71.0,40.0,-100.00,SE,128,9.0,11.0,33,-99.99,,,-99.99,,2015-08-29 06:23:00,
2015-08-29 00:33:00,71.0,40.0,-100.00,SE,128,9.0,11.0,33,-99.99,,,-99.99,,2015-08-29 06:33:00,
2015-08-29 00:44:00,71.0,40.0,-100.00,SE,128,9.0,11.0,33,-99.99,,,-99.99,,2015-08-29 06:44:00,
2015-08-29 00:51:00,69.0,39.0,-100.00,South,176,5.0,12.0,33,-99.99,,,-99.99,,2015-08-29 06:51:00,
2015-08-29 01:13:00,69.0,39.0,-100.00,South,176,5.0,12.0,33,-99.99,,,-99.99,,2015-08-29 07:13:00,
2015-08-29 01:23:00,69.0,39.0,-100.00,South,176,5.0,12.0,33,-99.99,,,-99.99,,2015-08-29 07:23:00,
2015-08-29 01:33:00,69.0,39.0,-100.00,South,176,5.0,12.0,33,-99.99,,,-99.99,,2015-08-29 07:33:00,
2015-08-29 01:43:00,69.0,39.0,-100.00,South,176,5.0,12.0,33,-99.99,,,-99.99,,2015-08-29 07:43:00,
2015-08-29 01:51:00,67.0,41.0,-100.00,South,169,6.0,11.0,38,-99.99,,,-99.99,,2015-08-29 07:51:00,
2015-08-29 02:13:00,67.0,41.0,-100.00,South,169,6.0,11.0,38,-99.99,,,-99.99,,2015-08-29 08:13:00,
2015-08-29 02:23:00,67.0,41.0,-100.00,South,169,6.0,11.0,38,-99.99,,,-99.99,,2015-08-29 08:23:00,
2015-08-29 02:33:00,67.0,41.0,-100.00,South,169,6.0,11.0,38,-99.99,,,-99.99,,2015-08-29 08:33:00,
2015-08-29 02:43:00,67.0,41.0,-100.00,South,169,6.0,11.0,38,-99.99,,,-99.99,,2015-08-29 08:43:00,
2015-08-29 02:51:00,67.0,41.0,-100.00,SSE,162,8.0,11.0,39,-99.99,,,-99.99,,2015-08-29 08:51:00,
2015-08-29 03:13:00,67.0,41.0,-100.00,SSE,162,8.0,11.0,39,-99.99,,,-99.99,,2015-08-29 09:13:00,
2015-08-29 03:23:00,67.0,41.0,-100.00,SSE,162,8.0,11.0,39,-99.99,,,-99.99,,2015-08-29 09:23:00,
2015-08-29 03:33:00,67.0,41.0,-100.00,SSE,162,8.0,11.0,39,-99.99,,,-99.99,,2015-08-29 09:33:00,
2015-08-29 03:43:00,67.0,41.0,-100.00,SSE,162,8.0,11.0,39,-99.99,,,-99.99,,2015-08-29 09:43:00,
2015-08-29 03:51:00,67.0,38.0,-100.00,SSE,165,12.0,15.0,35,-99.99,,,-99.99,,2015-08-29 09:51:00,
2015-08-29 04:23:00,67.0,38.0,-100.00,SSE,165,12.0,15.0,35,-99.99,,,-99.99,,2015-08-29 10:23:00,
2015-08-29 04:33:00,67.0,38.0,-100.00,SSE,165,12.0,15.0,35,-99.99,,,-99.99,,2015-08-29 10:33:00,
2015-08-29 04:44:00,67.0,38.0,-100.00,SSE,165,12.0,15.0,35,-99.99,,,-99.99,,2015-08-29 10:44:00,
2015-08-29 04:51:00,66.0,38.0,-100.00,SSE,162,9.0,13.0,36,-99.99,,,-99.99,,2015-08-29 10:51:00,
2015-08-29 05:13:00,66.0,38.0,-100.00,SSE,162,9.0,13.0,36,-99.99,,,-99.99,,2015-08-29 11:13:00,
2015-08-29 05:23:00,66.0,38.0,-100.00,SSE,162,9.0,13.0,36,-99.99,,,-99.99,,2015-08-29 11:23:00,
2015-08-29 05:34:00,66.0,38.0,-100.00,SSE,162,9.0,13.0,36,-99.99,,,-99.99,,2015-08-29 11:34:00,
2015-08-29 05:44:00,66.0,38.0,-100.00,SSE,162,9.0,13.0,36,-99.99,,,-99.99,,2015-08-29 11:44:00,
2015-08-29 05:51:00,66.0,36.0,-100.00,SSE,165,11.0,14.0,33,-99.99,,,-99.99,,2015-08-29 11:51:00,
2015-08-29 06:23:00,66.0,36.0,-100.00,SSE,165,11.0,14.0,33,-99.99,,,-99.99,,2015-08-29 12:23:00,
2015-08-29 06:34:00,66.0,36.0,-100.00,SSE,165,11.0,14.0,33,-99.99,,,-99.99,,2015-08-29 12:34:00,
2015-08-29 06:44:00,66.0,36.0,-100.00,SSE,165,11.0,14.0,33,-99.99,,,-99.99,,2015-08-29 12:44:00,
2015-08-29 06:51:00,65.0,36.0,-100.00,SSE,162,12.0,16.0,34,-99.99,,,-99.99,,2015-08-29 12:51:00,
2015-08-29 07:13:00,65.0,36.0,-100.00,SSE,162,12.0,16.0,34,-99.99,,,-99.99,,2015-08-29 13:13:00,
2015-08-29 07:23:00,65.0,36.0,-100.00,SSE,162,12.0,16.0,34,-99.99,,,-99.99,,2015-08-29 13:23:00,
2015-08-29 07:34:00,65.0,36.0,-100.00,SSE,162,12.0,16.0,34,-99.99,,,-99.99,,2015-08-29 13:34:00,
2015-08-29 07:43:00,65.0,36.0,-100.00,SSE,162,12.0,16.0,34,-99.99,,,-99.99,,2015-08-29 13:43:00,
2015-08-29 07:51:00,70.0,40.0,-100.00,SSE,167,11.0,15.0,33,-99.99,,,-99.99,,2015-08-29 13:51:00,
2015-08-29 08:33:00,70.0,40.0,-100.00,SSE,167,11.0,15.0,33,-99.99,,,-99.99,,2015-08-29 14:33:00,
2015-08-29 08:43:00,70.0,40.0,-100.00,SSE,167,11.0,15.0,33,-99.99,,,-99.99,,2015-08-29 14:43:00,
2015-08-29 08:51:00,75.0,39.0,-100.00,South,183,8.0,14.0,27,-99.99,,,-99.99,,2015-08-29 14:51:00,
2015-08-29 09:33:00,75.0,39.0,-100.00,South,183,8.0,14.0,27,-99.99,,,-99.99,,2015-08-29 15:33:00,
2015-08-29 09:44:00,75.0,39.0,-100.00,South,183,8.0,14.0,27,-99.99,,,-99.99,,2015-08-29 15:44:00,
2015-08-29 09:51:00,83.0,39.0,-100.00,South,190,9.0,17.0,21,-99.99,,,-99.99,,2015-08-29 15:51:00,
2015-08-29 11:13:00,87.0,37.0,-100.00,SW,234,9.0,17.0,17,-99.99,,,-99.99,,2015-08-29 17:13:00,